sensor_id;sensor_type;location;lat;lon;timestamp;pressure;altitude;pressure_sealevel;temperature;humidity
20955;BME280;10636;19.390;-99.256;2024-03-23T00:53:56;77666.44;;;28.80;14.79
20955;BME280;10636;19.390;-99.256;2024-03-23T00:56:23;77673.19;;;28.79;14.17
20955;BME280;10636;19.390;-99.256;2024-03-23T00:58:52;77677.19;;;28.78;14.61
20955;BME280;10636;19.390;-99.256;2024-03-23T01:01:19;77681.91;;;28.78;14.77
20955;BME280;10636;19.390;-99.256;2024-03-23T01:03:47;77682.53;;;28.74;14.74
20955;BME280;10636;19.390;-99.256;2024-03-23T01:06:15;77683.09;;;28.71;14.80
20955;BME280;10636;19.390;-99.256;2024-03-23T01:08:43;77686.44;;;28.69;14.32
20955;BME280;10636;19.390;-99.256;2024-03-23T01:11:12;77681.66;;;28.65;14.50
20955;BME280;10636;19.390;-99.256;2024-03-23T01:13:41;77701.88;;;28.64;14.34
20955;BME280;10636;19.390;-99.256;2024-03-23T01:16:08;77707.88;;;28.63;14.73
20955;BME280;10636;19.390;-99.256;2024-03-23T01:18:37;77710.59;;;28.63;15.28
20955;BME280;10636;19.390;-99.256;2024-03-23T01:21:04;77706.50;;;28.60;14.92
20955;BME280;10636;19.390;-99.256;2024-03-23T01:23:33;77699.53;;;28.51;15.11
20955;BME280;10636;19.390;-99.256;2024-03-23T01:26:00;77711.13;;;28.57;14.95
20955;BME280;10636;19.390;-99.256;2024-03-23T01:28:30;77711.78;;;28.56;14.87
20955;BME280;10636;19.390;-99.256;2024-03-23T01:30:58;77713.09;;;28.53;15.22
20955;BME280;10636;19.390;-99.256;2024-03-23T01:33:26;77723.88;;;28.53;15.76
20955;BME280;10636;19.390;-99.256;2024-03-23T01:35:54;77726.50;;;28.51;15.31
20955;BME280;10636;19.390;-99.256;2024-03-23T01:38:22;77734.56;;;28.49;15.92
20955;BME280;10636;19.390;-99.256;2024-03-23T01:40:50;77742.59;;;28.47;16.25
20955;BME280;10636;19.390;-99.256;2024-03-23T01:43:24;77751.91;;;28.42;16.40
20955;BME280;10636;19.390;-99.256;2024-03-23T01:45:53;77754.56;;;28.39;16.21
20955;BME280;10636;19.390;-99.256;2024-03-23T01:48:22;77751.78;;;28.35;16.21
20955;BME280;10636;19.390;-99.256;2024-03-23T01:50:49;77749.72;;;28.34;16.46
20955;BME280;10636;19.390;-99.256;2024-03-23T01:53:18;77744.16;;;28.28;16.70
20955;BME280;10636;19.390;-99.256;2024-03-23T01:55:51;77751.50;;;28.25;16.57
20955;BME280;10636;19.390;-99.256;2024-03-23T01:58:19;77758.19;;;28.22;16.75
20955;BME280;10636;19.390;-99.256;2024-03-23T02:00:46;77764.19;;;28.21;16.89
20955;BME280;10636;19.390;-99.256;2024-03-23T02:03:27;77760.78;;;28.18;17.05
20955;BME280;10636;19.390;-99.256;2024-03-23T02:05:54;77770.13;;;28.15;17.18
20955;BME280;10636;19.390;-99.256;2024-03-23T02:08:24;77772.66;;;28.07;17.68
20955;BME280;10636;19.390;-99.256;2024-03-23T02:10:54;77776.13;;;28.11;17.24
20955;BME280;10636;19.390;-99.256;2024-03-23T02:13:27;77782.81;;;28.10;17.54
20955;BME280;10636;19.390;-99.256;2024-03-23T02:15:55;77786.22;;;28.11;17.79
20955;BME280;10636;19.390;-99.256;2024-03-23T02:18:23;77790.22;;;28.10;18.09
20955;BME280;10636;19.390;-99.256;2024-03-23T02:20:52;77786.13;;;28.07;17.97
20955;BME280;10636;19.390;-99.256;2024-03-23T02:23:23;77798.84;;;28.04;17.79
20955;BME280;10636;19.390;-99.256;2024-03-23T02:25:53;77802.16;;;28.01;17.87
20955;BME280;10636;19.390;-99.256;2024-03-23T02:28:22;77818.25;;;27.99;18.40
20955;BME280;10636;19.390;-99.256;2024-03-23T02:30:50;77816.84;;;27.96;18.39
20955;BME280;10636;19.390;-99.256;2024-03-23T02:33:18;77814.16;;;27.96;18.25
20955;BME280;10636;19.390;-99.256;2024-03-23T02:35:46;77810.69;;;27.93;18.15
20955;BME280;10636;19.390;-99.256;2024-03-23T02:38:15;77816.69;;;27.90;18.40
20955;BME280;10636;19.390;-99.256;2024-03-23T02:40:44;77825.34;;;27.86;18.34
20955;BME280;10636;19.390;-99.256;2024-03-23T02:43:12;77825.28;;;27.84;18.40
20955;BME280;10636;19.390;-99.256;2024-03-23T02:45:40;77832.63;;;27.81;18.31
20955;BME280;10636;19.390;-99.256;2024-03-23T02:48:08;77844.75;;;27.80;18.52
20955;BME280;10636;19.390;-99.256;2024-03-23T02:50:36;77844.50;;;27.72;18.20
20955;BME280;10636;19.390;-99.256;2024-03-23T02:53:04;77861.44;;;27.75;18.54
20955;BME280;10636;19.390;-99.256;2024-03-23T02:55:32;77857.28;;;27.72;18.39
20955;BME280;10636;19.390;-99.256;2024-03-23T02:58:02;77864.00;;;27.71;18.71
20955;BME280;10636;19.390;-99.256;2024-03-23T03:00:29;77867.94;;;27.68;18.75
20955;BME280;10636;19.390;-99.256;2024-03-23T03:02:58;77868.56;;;27.66;18.73
20955;BME280;10636;19.390;-99.256;2024-03-23T03:05:25;77876.53;;;27.62;18.60
20955;BME280;10636;19.390;-99.256;2024-03-23T03:07:54;77875.16;;;27.61;18.89
20955;BME280;10636;19.390;-99.256;2024-03-23T03:10:23;77883.06;;;27.55;18.83
20955;BME280;10636;19.390;-99.256;2024-03-23T03:12:52;77877.69;;;27.55;19.13
20955;BME280;10636;19.390;-99.256;2024-03-23T03:15:21;77881.03;;;27.53;19.22
20955;BME280;10636;19.390;-99.256;2024-03-23T03:17:50;77886.28;;;27.49;19.17
20955;BME280;10636;19.390;-99.256;2024-03-23T03:20:17;77884.75;;;27.42;19.03
20955;BME280;10636;19.390;-99.256;2024-03-23T03:22:46;77891.34;;;27.37;19.10
20955;BME280;10636;19.390;-99.256;2024-03-23T03:25:13;77905.41;;;27.35;19.20
20955;BME280;10636;19.390;-99.256;2024-03-23T03:27:42;77904.00;;;27.32;19.15
20955;BME280;10636;19.390;-99.256;2024-03-23T03:30:10;77912.63;;;27.29;19.35
20955;BME280;10636;19.390;-99.256;2024-03-23T03:32:43;77916.63;;;27.28;19.27
20955;BME280;10636;19.390;-99.256;2024-03-23T03:35:10;77911.94;;;27.28;19.35
20955;BME280;10636;19.390;-99.256;2024-03-23T03:37:39;77916.00;;;27.29;19.34
20955;BME280;10636;19.390;-99.256;2024-03-23T03:40:07;77920.06;;;27.30;19.47
20955;BME280;10636;19.390;-99.256;2024-03-23T03:42:36;77925.44;;;27.30;19.46
20955;BME280;10636;19.390;-99.256;2024-03-23T03:45:07;77933.53;;;27.30;19.82
20955;BME280;10636;19.390;-99.256;2024-03-23T03:47:37;77933.47;;;27.28;19.73
20955;BME280;10636;19.390;-99.256;2024-03-23T03:50:07;77943.56;;;27.28;19.38
20955;BME280;10636;19.390;-99.256;2024-03-23T03:52:36;77948.19;;;27.25;19.46
20955;BME280;10636;19.390;-99.256;2024-03-23T03:55:04;77949.50;;;27.24;19.41
20955;BME280;10636;19.390;-99.256;2024-03-23T03:57:39;77952.16;;;27.22;19.52
20955;BME280;10636;19.390;-99.256;2024-03-23T04:00:10;77962.78;;;27.18;19.37
20955;BME280;10636;19.390;-99.256;2024-03-23T04:02:39;77979.75;;;27.23;19.56
20955;BME280;10636;19.390;-99.256;2024-03-23T04:05:09;77979.00;;;27.20;19.45
20955;BME280;10636;19.390;-99.256;2024-03-23T04:07:37;77964.16;;;27.19;19.57
20955;BME280;10636;19.390;-99.256;2024-03-23T04:10:08;77972.25;;;27.19;20.11
20955;BME280;10636;19.390;-99.256;2024-03-23T04:12:37;77972.94;;;27.20;20.34
20955;BME280;10636;19.390;-99.256;2024-03-23T04:15:05;77979.00;;;27.20;20.14
20955;BME280;10636;19.390;-99.256;2024-03-23T04:17:37;77988.47;;;27.21;20.31
20955;BME280;10636;19.390;-99.256;2024-03-23T04:20:05;77979.00;;;27.20;20.49
20955;BME280;10636;19.390;-99.256;2024-03-23T04:22:39;77983.69;;;27.20;20.66
20955;BME280;10636;19.390;-99.256;2024-03-23T04:25:07;77985.78;;;27.21;21.03
20955;BME280;10636;19.390;-99.256;2024-03-23T04:27:37;77982.38;;;27.21;21.03
20955;BME280;10636;19.390;-99.256;2024-03-23T04:30:05;77992.47;;;27.20;20.94
20955;BME280;10636;19.390;-99.256;2024-03-23T04:32:36;77992.47;;;27.20;21.02
20955;BME280;10636;19.390;-99.256;2024-03-23T04:35:06;77991.09;;;27.19;20.71
20955;BME280;10636;19.390;-99.256;2024-03-23T04:37:36;77996.47;;;27.19;21.32
20955;BME280;10636;19.390;-99.256;2024-03-23T04:40:07;77995.16;;;27.20;21.56
20955;BME280;10636;19.390;-99.256;2024-03-23T04:42:37;77993.84;;;27.21;21.51
20955;BME280;10636;19.390;-99.256;2024-03-23T04:45:06;77984.38;;;27.20;21.52
20955;BME280;10636;19.390;-99.256;2024-03-23T04:47:35;77983.09;;;27.21;21.56
20955;BME280;10636;19.390;-99.256;2024-03-23T04:50:05;77986.38;;;27.20;21.28
20955;BME280;10636;19.390;-99.256;2024-03-23T04:52:33;77988.38;;;27.19;21.79
20955;BME280;10636;19.390;-99.256;2024-03-23T04:55:02;77987.72;;;27.19;21.84
20955;BME280;10636;19.390;-99.256;2024-03-23T04:57:32;77977.63;;;27.19;21.85
20955;BME280;10636;19.390;-99.256;2024-03-23T05:00:01;77979.63;;;27.19;21.72
20955;BME280;10636;19.390;-99.256;2024-03-23T05:02:31;77935.09;;;26.94;21.81
20955;BME280;10636;19.390;-99.256;2024-03-23T05:05:02;77960.91;;;27.23;21.97
20955;BME280;10636;19.390;-99.256;2024-03-23T05:07:33;77973.09;;;27.26;22.01
20955;BME280;10636;19.390;-99.256;2024-03-23T05:10:02;77976.63;;;27.30;22.12
20955;BME280;10636;19.390;-99.256;2024-03-23T05:12:34;77977.38;;;27.33;21.94
20955;BME280;10636;19.390;-99.256;2024-03-23T05:15:03;77972.69;;;27.33;22.08
20955;BME280;10636;19.390;-99.256;2024-03-23T05:17:31;77972.72;;;27.35;22.18
20955;BME280;10636;19.390;-99.256;2024-03-23T05:20:03;77964.66;;;27.35;21.59
20955;BME280;10636;19.390;-99.256;2024-03-23T05:22:33;77945.88;;;27.38;22.20
20955;BME280;10636;19.390;-99.256;2024-03-23T05:25:01;77944.47;;;27.36;22.20
20955;BME280;10636;19.390;-99.256;2024-03-23T05:27:34;77948.63;;;27.40;22.22
20955;BME280;10636;19.390;-99.256;2024-03-23T05:30:03;77962.13;;;27.42;22.08
20955;BME280;10636;19.390;-99.256;2024-03-23T05:32:30;77949.31;;;27.40;22.21
20955;BME280;10636;19.390;-99.256;2024-03-23T05:34:59;77956.06;;;27.41;21.99
20955;BME280;10636;19.390;-99.256;2024-03-23T05:37:26;77954.06;;;27.42;21.96
20955;BME280;10636;19.390;-99.256;2024-03-23T05:40:00;77956.75;;;27.42;22.31
20955;BME280;10636;19.390;-99.256;2024-03-23T05:42:27;77968.22;;;27.42;22.51
20955;BME280;10636;19.390;-99.256;2024-03-23T05:44:58;77968.22;;;27.42;22.35
20955;BME280;10636;19.390;-99.256;2024-03-23T05:47:25;77971.63;;;27.43;22.46
20955;BME280;10636;19.390;-99.256;2024-03-23T05:49:54;77968.28;;;27.44;22.17
20955;BME280;10636;19.390;-99.256;2024-03-23T05:52:21;77957.50;;;27.44;22.60
20955;BME280;10636;19.390;-99.256;2024-03-23T05:54:51;77954.19;;;27.46;22.58
20955;BME280;10636;19.390;-99.256;2024-03-23T05:57:19;77960.88;;;27.45;22.80
20955;BME280;10636;19.390;-99.256;2024-03-23T05:59:47;77970.28;;;27.44;22.32
20955;BME280;10636;19.390;-99.256;2024-03-23T06:02:16;77964.91;;;27.44;22.83
20955;BME280;10636;19.390;-99.256;2024-03-23T06:04:46;77961.44;;;27.41;22.61
20955;BME280;10636;19.390;-99.256;2024-03-23T06:07:13;77954.13;;;27.44;23.19
20955;BME280;10636;19.390;-99.256;2024-03-23T06:09:44;77955.47;;;27.43;22.91
20955;BME280;10636;19.390;-99.256;2024-03-23T06:12:11;77952.75;;;27.43;22.75
20955;BME280;10636;19.390;-99.256;2024-03-23T06:14:39;77945.28;;;27.41;22.69
20955;BME280;10636;19.390;-99.256;2024-03-23T06:17:07;77941.91;;;27.41;22.87
20955;BME280;10636;19.390;-99.256;2024-03-23T06:19:38;77959.44;;;27.42;22.93
20955;BME280;10636;19.390;-99.256;2024-03-23T06:22:06;77958.72;;;27.39;22.80
20955;BME280;10636;19.390;-99.256;2024-03-23T06:24:37;77966.78;;;27.39;22.99
20955;BME280;10636;19.390;-99.256;2024-03-23T06:27:05;77958.03;;;27.39;22.33
20955;BME280;10636;19.390;-99.256;2024-03-23T06:29:33;77944.56;;;27.39;22.69
20955;BME280;10636;19.390;-99.256;2024-03-23T06:32:04;77949.94;;;27.39;22.89
20955;BME280;10636;19.390;-99.256;2024-03-23T06:34:32;77966.78;;;27.39;22.70
20955;BME280;10636;19.390;-99.256;2024-03-23T06:37:01;77970.72;;;27.36;22.66
20955;BME280;10636;19.390;-99.256;2024-03-23T06:39:30;77967.41;;;27.38;22.60
20955;BME280;10636;19.390;-99.256;2024-03-23T06:41:58;77958.59;;;27.35;22.45
20955;BME280;10636;19.390;-99.256;2024-03-23T06:44:26;77956.56;;;27.35;22.74
20955;BME280;10636;19.390;-99.256;2024-03-23T06:46:54;77952.50;;;27.34;22.46
20955;BME280;10636;19.390;-99.256;2024-03-23T06:49:23;77960.59;;;27.34;22.29
20955;BME280;10636;19.390;-99.256;2024-03-23T06:51:53;77942.38;;;27.33;22.18
20955;BME280;10636;19.390;-99.256;2024-03-23T06:54:25;77954.50;;;27.34;22.25
20955;BME280;10636;19.390;-99.256;2024-03-23T06:56:52;77948.44;;;27.33;22.39
20955;BME280;10636;19.390;-99.256;2024-03-23T06:59:20;77941.00;;;27.32;22.23
20955;BME280;10636;19.390;-99.256;2024-03-23T07:01:48;77949.75;;;27.32;22.26
20955;BME280;10636;19.390;-99.256;2024-03-23T07:04:16;77937.63;;;27.31;22.23
20955;BME280;10636;19.390;-99.256;2024-03-23T07:06:47;77938.91;;;27.30;22.41
20955;BME280;10636;19.390;-99.256;2024-03-23T07:09:16;77935.53;;;27.30;22.23
20955;BME280;10636;19.390;-99.256;2024-03-23T07:11:45;77934.84;;;27.29;22.56
20955;BME280;10636;19.390;-99.256;2024-03-23T07:14:13;77922.72;;;27.28;22.32
20955;BME280;10636;19.390;-99.256;2024-03-23T07:16:40;77916.63;;;27.28;22.45
20955;BME280;10636;19.390;-99.256;2024-03-23T07:19:09;77921.38;;;27.29;22.27
20955;BME280;10636;19.390;-99.256;2024-03-23T07:21:36;77922.03;;;27.28;22.28
20955;BME280;10636;19.390;-99.256;2024-03-23T07:24:06;77910.56;;;27.27;22.42
20955;BME280;10636;19.390;-99.256;2024-03-23T07:26:34;77902.41;;;27.25;22.32
20955;BME280;10636;19.390;-99.256;2024-03-23T07:29:04;77911.13;;;27.24;22.25
20955;BME280;10636;19.390;-99.256;2024-03-23T07:31:32;77909.13;;;27.24;22.28
20955;BME280;10636;19.390;-99.256;2024-03-23T07:34:00;77910.44;;;27.23;22.17
20955;BME280;10636;19.390;-99.256;2024-03-23T07:36:28;77911.75;;;27.22;22.29
20955;BME280;10636;19.390;-99.256;2024-03-23T07:38:56;77902.25;;;27.19;22.14
20955;BME280;10636;19.390;-99.256;2024-03-23T07:41:24;77901.59;;;27.21;22.39
20955;BME280;10636;19.390;-99.256;2024-03-23T07:43:52;77898.22;;;27.20;22.49
20955;BME280;10636;19.390;-99.256;2024-03-23T07:46:25;77883.97;;;27.16;22.34
20955;BME280;10636;19.390;-99.256;2024-03-23T07:48:52;77879.38;;;27.20;22.06
20955;BME280;10636;19.390;-99.256;2024-03-23T07:51:21;77868.25;;;27.08;22.41
20955;BME280;10636;19.390;-99.256;2024-03-23T07:53:49;77877.97;;;27.17;22.31
20955;BME280;10636;19.390;-99.256;2024-03-23T07:56:19;77879.97;;;27.17;22.48
20955;BME280;10636;19.390;-99.256;2024-03-23T07:58:46;77872.50;;;27.15;22.48
20955;BME280;10636;19.390;-99.256;2024-03-23T08:01:16;77855.41;;;27.06;22.37
20955;BME280;10636;19.390;-99.256;2024-03-23T08:03:45;77865.75;;;27.14;22.52
20955;BME280;10636;19.390;-99.256;2024-03-23T08:06:15;77861.06;;;27.15;22.16
20955;BME280;10636;19.390;-99.256;2024-03-23T08:08:44;77854.97;;;27.14;22.06
20955;BME280;10636;19.390;-99.256;2024-03-23T08:11:13;77846.47;;;27.00;22.51
20955;BME280;10636;19.390;-99.256;2024-03-23T08:13:44;77861.63;;;27.11;22.33
20955;BME280;10636;19.390;-99.256;2024-03-23T08:16:15;77853.47;;;27.09;22.48
20955;BME280;10636;19.390;-99.256;2024-03-23T08:18:47;77858.88;;;27.09;22.53
20955;BME280;10636;19.390;-99.256;2024-03-23T08:21:15;77858.88;;;27.09;22.16
20955;BME280;10636;19.390;-99.256;2024-03-23T08:23:43;77852.13;;;27.08;22.35
20955;BME280;10636;19.390;-99.256;2024-03-23T08:26:12;77853.47;;;27.09;22.29
20955;BME280;10636;19.390;-99.256;2024-03-23T08:28:40;77859.50;;;27.07;22.36
20955;BME280;10636;19.390;-99.256;2024-03-23T08:31:09;77847.25;;;27.04;22.45
20955;BME280;10636;19.390;-99.256;2024-03-23T08:33:37;77850.63;;;27.05;22.50
20955;BME280;10636;19.390;-99.256;2024-03-23T08:36:08;77851.28;;;27.03;22.72
20955;BME280;10636;19.390;-99.256;2024-03-23T08:38:36;77857.34;;;27.04;22.54
20955;BME280;10636;19.390;-99.256;2024-03-23T08:41:06;77850.59;;;27.03;22.40
20955;BME280;10636;19.390;-99.256;2024-03-23T08:43:35;77847.84;;;27.01;22.23
20955;BME280;10636;19.390;-99.256;2024-03-23T08:46:04;77849.16;;;27.00;22.53
20955;BME280;10636;19.390;-99.256;2024-03-23T08:48:32;77835.59;;;26.96;22.40
20955;BME280;10636;19.390;-99.256;2024-03-23T08:51:02;77832.94;;;26.98;22.42
20955;BME280;10636;19.390;-99.256;2024-03-23T08:53:31;77825.56;;;26.98;22.76
20955;BME280;10636;19.390;-99.256;2024-03-23T08:56:00;77828.84;;;26.95;22.71
20955;BME280;10636;19.390;-99.256;2024-03-23T08:58:30;77830.91;;;26.96;22.36
20955;BME280;10636;19.390;-99.256;2024-03-23T09:01:04;77824.81;;;26.96;22.62
20955;BME280;10636;19.390;-99.256;2024-03-23T09:03:32;77823.47;;;26.95;22.46
20955;BME280;10636;19.390;-99.256;2024-03-23T09:06:00;77830.78;;;26.92;22.28
20955;BME280;10636;19.390;-99.256;2024-03-23T09:08:28;77825.38;;;26.92;22.27
20955;BME280;10636;19.390;-99.256;2024-03-23T09:11:00;77831.47;;;26.93;22.33
20955;BME280;10636;19.390;-99.256;2024-03-23T09:13:30;77836.78;;;26.91;22.36
20955;BME280;10636;19.390;-99.256;2024-03-23T09:16:02;77834.09;;;26.91;22.44
20955;BME280;10636;19.390;-99.256;2024-03-23T09:18:30;77832.72;;;26.90;22.58
20955;BME280;10636;19.390;-99.256;2024-03-23T09:20:59;77840.72;;;26.88;22.40
20955;BME280;10636;19.390;-99.256;2024-03-23T09:23:27;77845.41;;;26.87;22.39
20955;BME280;10636;19.390;-99.256;2024-03-23T09:25:57;77840.03;;;26.87;22.18
20955;BME280;10636;19.390;-99.256;2024-03-23T09:28:24;77837.97;;;26.85;22.26
20955;BME280;10636;19.390;-99.256;2024-03-23T09:30:53;77843.38;;;26.85;22.18
20955;BME280;10636;19.390;-99.256;2024-03-23T09:33:20;77840.59;;;26.83;22.33
20955;BME280;10636;19.390;-99.256;2024-03-23T09:35:49;77839.22;;;26.82;22.31
20955;BME280;10636;19.390;-99.256;2024-03-23T09:38:19;77837.84;;;26.81;22.14
20955;BME280;10636;19.390;-99.256;2024-03-23T09:40:48;77838.50;;;26.80;22.42
20955;BME280;10636;19.390;-99.256;2024-03-23T09:43:18;77847.13;;;26.76;22.27
20955;BME280;10636;19.390;-99.256;2024-03-23T09:45:47;77849.19;;;26.78;22.32
20955;BME280;10636;19.390;-99.256;2024-03-23T09:48:16;77853.88;;;26.77;22.21
20955;BME280;10636;19.390;-99.256;2024-03-23T09:50:45;77856.50;;;26.75;22.21
20955;BME280;10636;19.390;-99.256;2024-03-23T09:53:14;77861.22;;;26.75;22.26
20955;BME280;10636;19.390;-99.256;2024-03-23T09:55:43;77853.13;;;26.75;22.30
20955;BME280;10636;19.390;-99.256;2024-03-23T09:58:13;77859.84;;;26.74;22.17
20955;BME280;10636;19.390;-99.256;2024-03-23T10:00:43;77858.44;;;26.73;22.03
20955;BME280;10636;19.390;-99.256;2024-03-23T10:03:11;77859.06;;;26.71;22.03
20955;BME280;10636;19.390;-99.256;2024-03-23T10:05:40;77862.44;;;26.72;22.08
20955;BME280;10636;19.390;-99.256;2024-03-23T10:08:18;77869.16;;;26.71;22.17
20955;BME280;10636;19.390;-99.256;2024-03-23T10:10:47;77873.78;;;26.68;22.06
20955;BME280;10636;19.390;-99.256;2024-03-23T10:13:25;77872.38;;;26.67;21.97
20955;BME280;10636;19.390;-99.256;2024-03-23T10:15:59;77870.34;;;26.66;21.83
20955;BME280;10636;19.390;-99.256;2024-03-23T10:18:26;77864.28;;;26.65;22.08
20955;BME280;10636;19.390;-99.256;2024-03-23T10:21:07;77864.13;;;26.61;22.04
20955;BME280;10636;19.390;-99.256;2024-03-23T10:23:36;77868.16;;;26.60;22.10
20955;BME280;10636;19.390;-99.256;2024-03-23T10:26:15;77874.91;;;26.61;22.11
20955;BME280;10636;19.390;-99.256;2024-03-23T10:28:56;77881.59;;;26.60;22.06
20955;BME280;10636;19.390;-99.256;2024-03-23T10:31:29;77888.28;;;26.59;21.98
20955;BME280;10636;19.390;-99.256;2024-03-23T10:33:57;77879.28;;;26.50;22.02
20955;BME280;10636;19.390;-99.256;2024-03-23T10:36:27;77885.53;;;26.57;22.09
20955;BME280;10636;19.390;-99.256;2024-03-23T10:38:55;77891.59;;;26.57;22.07
20955;BME280;10636;19.390;-99.256;2024-03-23T10:41:26;77878.78;;;26.56;22.19
20955;BME280;10636;19.390;-99.256;2024-03-23T10:43:56;77893.53;;;26.55;22.13
20955;BME280;10636;19.390;-99.256;2024-03-23T10:46:26;77887.47;;;26.54;22.21
20955;BME280;10636;19.390;-99.256;2024-03-23T10:48:55;77888.16;;;26.55;22.17
20955;BME280;10636;19.390;-99.256;2024-03-23T10:51:23;77890.78;;;26.53;22.03
20955;BME280;10636;19.390;-99.256;2024-03-23T10:53:52;77897.53;;;26.54;22.21
20955;BME280;10636;19.390;-99.256;2024-03-23T10:56:22;77897.47;;;26.52;22.26
20955;BME280;10636;19.390;-99.256;2024-03-23T10:58:50;77906.16;;;26.50;22.10
20955;BME280;10636;19.390;-99.256;2024-03-23T11:01:19;77908.84;;;26.50;22.26
20955;BME280;10636;19.390;-99.256;2024-03-23T11:03:47;77916.94;;;26.50;22.60
20955;BME280;10636;19.390;-99.256;2024-03-23T11:06:35;77925.69;;;26.51;22.80
20955;BME280;10636;19.390;-99.256;2024-03-23T11:09:03;77916.88;;;26.48;22.65
20955;BME280;10636;19.390;-99.256;2024-03-23T11:11:32;77889.84;;;26.24;22.96
20955;BME280;10636;19.390;-99.256;2024-03-23T11:14:00;77916.19;;;26.48;22.67
20955;BME280;10636;19.390;-99.256;2024-03-23T11:16:40;77920.16;;;26.47;22.56
20955;BME280;10636;19.390;-99.256;2024-03-23T11:19:34;77916.78;;;26.46;23.05
20955;BME280;10636;19.390;-99.256;2024-03-23T11:22:06;77905.63;;;26.34;22.89
20955;BME280;10636;19.390;-99.256;2024-03-23T11:24:34;77923.47;;;26.45;22.93
20955;BME280;10636;19.390;-99.256;2024-03-23T11:27:15;77930.13;;;26.42;22.94
20955;BME280;10636;19.390;-99.256;2024-03-23T11:29:44;77924.13;;;26.44;22.95
20955;BME280;10636;19.390;-99.256;2024-03-23T11:32:12;77925.44;;;26.43;22.91
20955;BME280;10636;19.390;-99.256;2024-03-23T11:34:40;77926.72;;;26.42;22.84
20955;BME280;10636;19.390;-99.256;2024-03-23T11:37:09;77930.81;;;26.43;23.04
20955;BME280;10636;19.390;-99.256;2024-03-23T11:39:38;77917.19;;;26.39;23.08
20955;BME280;10636;19.390;-99.256;2024-03-23T11:42:05;77928.69;;;26.41;22.83
20955;BME280;10636;19.390;-99.256;2024-03-23T11:44:36;77922.63;;;26.41;23.12
20955;BME280;10636;19.390;-99.256;2024-03-23T11:47:10;77918.56;;;26.40;22.92
20955;BME280;10636;19.390;-99.256;2024-03-23T11:49:39;77934.00;;;26.39;23.07
20955;BME280;10636;19.390;-99.256;2024-03-23T11:52:09;77924.59;;;26.38;23.10
20955;BME280;10636;19.390;-99.256;2024-03-23T11:54:37;77924.59;;;26.38;23.25
20955;BME280;10636;19.390;-99.256;2024-03-23T11:57:08;77929.28;;;26.38;22.91
20955;BME280;10636;19.390;-99.256;2024-03-23T11:59:37;77926.50;;;26.36;23.03
20955;BME280;10636;19.390;-99.256;2024-03-23T12:02:08;77930.50;;;26.34;23.04
20955;BME280;10636;19.390;-99.256;2024-03-23T12:04:37;77935.88;;;26.34;23.07
20955;BME280;10636;19.390;-99.256;2024-03-23T12:07:13;77930.50;;;26.34;23.07
20955;BME280;10636;19.390;-99.256;2024-03-23T12:09:47;77943.94;;;26.34;23.22
20955;BME280;10636;19.390;-99.256;2024-03-23T12:12:15;77941.19;;;26.32;23.21
20955;BME280;10636;19.390;-99.256;2024-03-23T12:14:44;77946.59;;;26.32;23.37
20955;BME280;10636;19.390;-99.256;2024-03-23T12:17:12;77945.91;;;26.32;23.18
20955;BME280;10636;19.390;-99.256;2024-03-23T12:19:41;77956.56;;;26.30;23.31
20955;BME280;10636;19.390;-99.256;2024-03-23T12:22:09;77949.13;;;26.28;23.19
20955;BME280;10636;19.390;-99.256;2024-03-23T12:24:39;77957.13;;;26.26;23.58
20955;BME280;10636;19.390;-99.256;2024-03-23T12:27:13;77953.13;;;26.27;23.33
20955;BME280;10636;19.390;-99.256;2024-03-23T12:29:42;77959.88;;;26.28;23.62
20955;BME280;10636;19.390;-99.256;2024-03-23T12:32:13;77948.44;;;26.28;23.51
20955;BME280;10636;19.390;-99.256;2024-03-23T12:34:42;77950.50;;;26.29;23.62
20955;BME280;10636;19.390;-99.256;2024-03-23T12:37:10;77947.75;;;26.27;23.52
20955;BME280;10636;19.390;-99.256;2024-03-23T12:39:40;77947.06;;;26.27;23.61
20955;BME280;10636;19.390;-99.256;2024-03-23T12:42:08;77944.97;;;26.25;23.88
20955;BME280;10636;19.390;-99.256;2024-03-23T12:44:36;77962.50;;;26.26;23.77
20955;BME280;10636;19.390;-99.256;2024-03-23T12:47:04;77968.50;;;26.25;24.22
20955;BME280;10636;19.390;-99.256;2024-03-23T12:49:35;77967.13;;;26.24;23.96
20955;BME280;10636;19.390;-99.256;2024-03-23T12:52:05;77972.56;;;26.26;24.21
20955;BME280;10636;19.390;-99.256;2024-03-23T12:54:34;77977.25;;;26.25;24.27
20955;BME280;10636;19.390;-99.256;2024-03-23T12:57:03;77970.50;;;26.24;24.10
20955;BME280;10636;19.390;-99.256;2024-03-23T12:59:33;77971.94;;;26.27;24.20
20955;BME280;10636;19.390;-99.256;2024-03-23T13:02:02;77981.94;;;26.25;24.16
20955;BME280;10636;19.390;-99.256;2024-03-23T13:04:30;77985.94;;;26.24;24.14
20955;BME280;10636;19.390;-99.256;2024-03-23T13:06:58;78009.44;;;26.23;24.00
20955;BME280;10636;19.390;-99.256;2024-03-23T13:09:26;78004.75;;;26.24;23.91
20955;BME280;10636;19.390;-99.256;2024-03-23T13:11:54;77998.16;;;26.27;23.98
20955;BME280;10636;19.390;-99.256;2024-03-23T13:14:26;77996.16;;;26.27;23.95
20955;BME280;10636;19.390;-99.256;2024-03-23T13:16:54;78001.53;;;26.27;24.33
20955;BME280;10636;19.390;-99.256;2024-03-23T13:19:22;78014.28;;;26.27;24.16
20955;BME280;10636;19.390;-99.256;2024-03-23T13:21:53;78008.06;;;26.22;24.21
20955;BME280;10636;19.390;-99.256;2024-03-23T13:24:23;78024.19;;;26.22;24.13
20955;BME280;10636;19.390;-99.256;2024-03-23T13:26:51;78025.50;;;26.21;23.97
20955;BME280;10636;19.390;-99.256;2024-03-23T13:29:20;78025.50;;;26.21;24.17
20955;BME280;10636;19.390;-99.256;2024-03-23T13:31:51;78026.06;;;26.18;24.37
20955;BME280;10636;19.390;-99.256;2024-03-23T13:34:20;78030.88;;;26.21;24.37
20955;BME280;10636;19.390;-99.256;2024-03-23T13:36:47;78036.19;;;26.19;24.09
20955;BME280;10636;19.390;-99.256;2024-03-23T13:39:16;78035.50;;;26.19;24.49
20955;BME280;10636;19.390;-99.256;2024-03-23T13:41:44;78055.00;;;26.19;24.45
20955;BME280;10636;19.390;-99.256;2024-03-23T13:44:13;78055.69;;;26.20;24.38